createdAt,value
2023-09-07T00:00:19.252Z,2.92
2023-09-07T00:02:47.509Z,2.92
2023-09-07T00:05:15.605Z,2.80
2023-09-07T00:07:43.059Z,3.10
2023-09-07T00:10:10.775Z,2.88
2023-09-07T00:12:40.618Z,2.95
2023-09-07T00:15:08.816Z,3.03
2023-09-07T00:17:36.278Z,2.88
2023-09-07T00:20:12.025Z,3.20
2023-09-07T00:22:39.511Z,3.28
2023-09-07T00:25:08.131Z,2.88
2023-09-07T00:27:35.725Z,3.17
2023-09-07T00:30:06.101Z,2.90
2023-09-07T00:32:34.855Z,2.88
2023-09-07T00:35:02.382Z,3.30
2023-09-07T00:37:29.958Z,3.25
2023-09-07T00:39:57.549Z,3.70
2023-09-07T00:42:25.022Z,3.17
2023-09-07T00:44:52.541Z,3.28
2023-09-07T00:47:20.146Z,3.20
2023-09-07T00:49:47.858Z,3.13
2023-09-07T00:52:15.332Z,3.70
2023-09-07T00:54:43.777Z,3.40
2023-09-07T00:57:11.569Z,3.53
2023-09-07T00:59:39.058Z,3.60
2023-09-07T01:02:09.241Z,4.57
2023-09-07T01:04:36.998Z,4.00
2023-09-07T01:07:15.110Z,3.70
2023-09-07T01:09:44.735Z,4.53
2023-09-07T01:12:16.348Z,4.30
2023-09-07T01:14:44.240Z,4.28
2023-09-07T01:17:13.238Z,4.07
2023-09-07T01:19:41.443Z,3.70
2023-09-07T01:22:10.627Z,4.18
2023-09-07T01:24:40.110Z,4.10
2023-09-07T01:27:07.932Z,4.03
2023-09-07T01:29:35.491Z,4.25
2023-09-07T01:32:03.352Z,3.80
2023-09-07T01:34:30.871Z,3.90
2023-09-07T01:36:58.278Z,3.42
2023-09-07T01:39:25.710Z,3.75
2023-09-07T01:41:53.238Z,3.50
2023-09-07T01:44:21.046Z,3.85
2023-09-07T01:46:48.536Z,3.50
2023-09-07T01:49:15.943Z,3.75
2023-09-07T01:51:43.490Z,3.83
2023-09-07T01:54:11.781Z,4.00
2023-09-07T01:56:42.764Z,4.00
2023-09-07T01:59:10.363Z,4.20
2023-09-07T02:01:38.953Z,4.28
2023-09-07T02:04:06.463Z,4.25
2023-09-07T02:06:33.956Z,4.18
2023-09-07T02:09:01.563Z,3.83
2023-09-07T02:11:29.112Z,3.63
2023-09-07T02:13:56.520Z,3.65
2023-09-07T02:16:24.092Z,3.85
2023-09-07T02:18:52.050Z,3.60
2023-09-07T02:21:19.529Z,3.85
2023-09-07T02:23:46.982Z,3.85
2023-09-07T02:26:14.502Z,4.00
2023-09-07T02:28:42.282Z,4.00
2023-09-07T02:31:09.897Z,3.55
2023-09-07T02:33:37.436Z,4.03
2023-09-07T02:36:05.507Z,4.35
2023-09-07T02:38:33.177Z,4.03
2023-09-07T02:41:00.896Z,4.10
2023-09-07T02:43:28.606Z,3.85
2023-09-07T02:45:55.990Z,3.63
2023-09-07T02:48:23.387Z,4.00
2023-09-07T02:50:52.069Z,3.95
2023-09-07T02:53:19.774Z,4.07
2023-09-07T02:55:47.270Z,4.65
2023-09-07T02:58:14.992Z,3.78
2023-09-07T03:00:46.337Z,4.45
2023-09-07T03:03:16.286Z,4.63
2023-09-07T03:05:44.774Z,4.63
2023-09-07T03:08:12.357Z,4.50
2023-09-07T03:10:41.328Z,4.50
2023-09-07T03:13:09.042Z,4.15
2023-09-07T03:15:37.048Z,4.18
2023-09-07T03:18:04.841Z,4.43
2023-09-07T03:20:35.620Z,4.70
2023-09-07T03:23:03.823Z,4.15
2023-09-07T03:25:31.475Z,4.70
2023-09-07T03:27:59.008Z,4.40
2023-09-07T03:30:26.539Z,4.63
2023-09-07T03:32:54.064Z,5.07
2023-09-07T03:35:21.674Z,4.72
2023-09-07T03:37:49.072Z,4.47
2023-09-07T03:40:16.581Z,4.47
2023-09-07T03:42:44.859Z,4.63
2023-09-07T03:45:12.457Z,4.60
2023-09-07T03:47:40.314Z,4.45
2023-09-07T03:50:08.124Z,4.72
2023-09-07T03:52:35.631Z,4.97
2023-09-07T03:55:03.424Z,4.30
2023-09-07T03:57:33.749Z,4.93
2023-09-07T04:00:01.667Z,4.90
2023-09-07T04:02:29.570Z,5.15
2023-09-07T04:04:57.205Z,4.90
2023-09-07T04:07:24.688Z,4.72
2023-09-07T04:09:52.183Z,5.38
2023-09-07T04:12:19.644Z,5.30
2023-09-07T04:14:47.138Z,5.30
2023-09-07T04:17:14.612Z,5.22
2023-09-07T04:19:42.017Z,5.28
2023-09-07T04:22:09.400Z,4.82
2023-09-07T04:24:36.849Z,5.25
2023-09-07T04:27:05.188Z,4.85
2023-09-07T04:29:32.630Z,5.28
2023-09-07T04:32:00.035Z,5.38
2023-09-07T04:34:27.480Z,5.72
2023-09-07T04:36:54.898Z,5.60
2023-09-07T04:39:22.300Z,5.32
2023-09-07T04:41:49.783Z,5.65
2023-09-07T04:44:17.198Z,5.50
2023-09-07T04:46:44.648Z,5.68
2023-09-07T04:49:12.060Z,5.70
2023-09-07T04:51:39.518Z,5.65
2023-09-07T04:54:07.012Z,5.80
2023-09-07T04:56:34.411Z,5.90
2023-09-07T04:59:01.812Z,5.50
2023-09-07T05:01:29.719Z,5.25
2023-09-07T05:03:57.524Z,5.65
2023-09-07T05:06:24.933Z,5.60
2023-09-07T05:08:52.303Z,5.32
2023-09-07T05:11:19.681Z,5.63
2023-09-07T05:13:47.150Z,5.65
2023-09-07T05:16:14.653Z,5.97
2023-09-07T05:18:44.287Z,5.82
2023-09-07T05:21:15.917Z,6.00
2023-09-07T05:23:43.973Z,5.65
2023-09-07T05:26:11.793Z,6.18
2023-09-07T05:28:41.908Z,6.25
2023-09-07T05:31:09.562Z,6.20
2023-09-07T05:33:37.196Z,6.03
2023-09-07T05:36:04.841Z,6.22
2023-09-07T05:38:34.047Z,6.07
2023-09-07T05:41:02.064Z,6.30
2023-09-07T05:43:29.725Z,6.97
2023-09-07T05:45:57.218Z,6.70
2023-09-07T05:48:24.685Z,6.10
2023-09-07T05:50:52.181Z,6.03
2023-09-07T05:53:22.815Z,6.53
2023-09-07T05:55:50.271Z,6.00
2023-09-07T05:58:17.754Z,6.03
2023-09-07T06:00:45.309Z,6.25
2023-09-07T06:03:13.065Z,6.10
2023-09-07T06:05:40.891Z,6.22
2023-09-07T06:08:08.910Z,6.72
2023-09-07T06:10:36.546Z,6.35
2023-09-07T06:13:04.746Z,6.13
2023-09-07T06:15:32.588Z,5.95
2023-09-07T06:18:00.297Z,6.35
2023-09-07T06:20:27.833Z,6.30
2023-09-07T06:22:55.312Z,6.20
2023-09-07T06:25:23.579Z,5.95
2023-09-07T06:27:51.045Z,6.20
2023-09-07T06:30:19.739Z,5.88
2023-09-07T06:32:47.184Z,6.00
2023-09-07T06:35:14.841Z,6.22
2023-09-07T06:37:44.558Z,6.05
2023-09-07T06:40:12.541Z,6.38
2023-09-07T06:42:39.968Z,6.03
2023-09-07T06:45:08.496Z,6.13
2023-09-07T06:47:35.913Z,5.90
2023-09-07T06:50:03.658Z,5.50
2023-09-07T06:52:31.197Z,6.13
2023-09-07T06:54:58.687Z,6.05
2023-09-07T06:57:26.186Z,6.15
2023-09-07T06:59:53.706Z,6.22
2023-09-07T07:02:21.108Z,6.05
2023-09-07T07:04:48.567Z,6.07
2023-09-07T07:07:15.998Z,5.80
2023-09-07T07:09:43.499Z,6.05
2023-09-07T07:12:11.049Z,6.40
2023-09-07T07:14:38.508Z,6.13
2023-09-07T07:17:06.472Z,6.05
2023-09-07T07:19:34.324Z,6.00
2023-09-07T07:22:01.885Z,5.82
2023-09-07T07:24:29.439Z,6.18
2023-09-07T07:26:56.790Z,6.30
2023-09-07T07:29:24.299Z,6.00
2023-09-07T07:31:51.717Z,5.80
2023-09-07T07:34:19.172Z,5.72
2023-09-07T07:36:46.633Z,6.45
2023-09-07T07:39:14.203Z,6.22
2023-09-07T07:41:43.904Z,5.90
2023-09-07T07:44:11.495Z,6.20
2023-09-07T07:46:39.047Z,5.88
2023-09-07T07:49:06.550Z,5.95
2023-09-07T07:51:33.991Z,5.97
2023-09-07T07:54:01.542Z,5.88
2023-09-07T07:56:30.749Z,5.30
2023-09-07T07:59:00.016Z,5.80
2023-09-07T08:01:27.657Z,5.55
2023-09-07T08:03:55.410Z,5.60
2023-09-07T08:06:23.019Z,5.50
2023-09-07T08:08:50.410Z,6.00
2023-09-07T08:11:18.193Z,6.63
2023-09-07T08:13:47.833Z,8.25
2023-09-07T08:16:15.459Z,6.05
2023-09-07T08:18:43.076Z,5.75
2023-09-07T08:21:10.654Z,5.80
2023-09-07T08:23:38.088Z,5.70
2023-09-07T08:26:06.617Z,5.43
2023-09-07T08:28:34.361Z,5.43
2023-09-07T08:31:02.434Z,5.40
2023-09-07T08:33:30.723Z,5.45
2023-09-07T08:35:58.990Z,5.57
2023-09-07T08:38:29.664Z,5.30
2023-09-07T08:41:02.679Z,4.80
2023-09-07T08:43:30.631Z,5.05
2023-09-07T08:46:16.062Z,4.97
2023-09-07T08:48:44.930Z,4.88
2023-09-07T08:51:14.286Z,5.03
2023-09-07T08:53:42.464Z,5.15
2023-09-07T08:56:11.431Z,4.97
2023-09-07T08:58:39.159Z,5.20
2023-09-07T09:01:08.170Z,5.30
2023-09-07T09:03:38.674Z,5.00
2023-09-07T09:06:06.834Z,5.90
2023-09-07T09:08:50.307Z,5.13
2023-09-07T09:13:46.925Z,5.20
2023-09-07T09:16:15.487Z,4.88
2023-09-07T09:18:56.632Z,5.10
2023-09-07T09:21:26.498Z,5.15
2023-09-07T09:23:56.246Z,4.72
2023-09-07T09:26:26.383Z,4.65
2023-09-07T09:28:57.146Z,4.70
2023-09-07T09:31:26.138Z,5.05
2023-09-07T09:33:54.380Z,4.40
2023-09-07T09:36:23.316Z,4.47
2023-09-07T09:38:54.300Z,4.70
2023-09-07T09:41:24.874Z,4.78
2023-09-07T09:43:54.095Z,4.90
2023-09-07T09:46:23.405Z,4.43
2023-09-07T09:48:51.164Z,4.45
2023-09-07T09:51:19.673Z,5.00
2023-09-07T09:53:48.157Z,4.47
2023-09-07T09:56:15.648Z,4.32
2023-09-07T09:58:43.078Z,4.75
2023-09-07T10:01:12.222Z,4.20
2023-09-07T10:03:51.769Z,4.70
2023-09-07T10:06:22.294Z,7.10
2023-09-07T10:09:08.096Z,7.22
2023-09-07T10:11:40.775Z,8.15
2023-09-07T10:14:09.152Z,5.30
2023-09-07T10:16:45.292Z,5.82
2023-09-07T10:19:23.460Z,4.30
2023-09-07T10:21:54.272Z,4.10
2023-09-07T10:24:29.835Z,4.00
2023-09-07T10:27:08.239Z,4.35
2023-09-07T10:29:56.401Z,4.40
2023-09-07T10:32:24.832Z,4.53
2023-09-07T10:34:52.470Z,4.43
2023-09-07T10:37:20.964Z,4.15
2023-09-07T10:39:48.408Z,4.40
2023-09-07T10:42:26.204Z,4.13
2023-09-07T10:44:54.370Z,4.18
2023-09-07T10:47:22.253Z,3.78
2023-09-07T10:49:49.954Z,4.28
2023-09-07T10:52:17.945Z,4.00
2023-09-07T10:54:45.485Z,4.00
2023-09-07T10:57:19.221Z,4.35
2023-09-07T10:59:47.772Z,4.10
2023-09-07T11:02:17.417Z,3.92
2023-09-07T11:04:45.205Z,4.40
2023-09-07T11:07:13.487Z,4.00
2023-09-07T11:09:44.973Z,4.25
2023-09-07T11:12:17.418Z,4.13
2023-09-07T11:14:44.977Z,4.40
2023-09-07T11:17:12.453Z,3.72
2023-09-07T11:19:39.876Z,4.55
2023-09-07T11:22:10.391Z,4.05
2023-09-07T11:24:38.195Z,3.75
2023-09-07T11:27:05.949Z,4.45
2023-09-07T11:29:34.282Z,3.58
2023-09-07T11:32:08.963Z,3.58
2023-09-07T11:34:36.789Z,3.90
2023-09-07T11:37:04.728Z,3.53
2023-09-07T11:39:32.171Z,4.03
2023-09-07T11:41:59.562Z,4.10
2023-09-07T11:44:26.932Z,3.65
2023-09-07T11:46:54.394Z,4.20
2023-09-07T11:49:22.840Z,3.60
2023-09-07T11:51:50.621Z,3.58
2023-09-07T11:54:18.636Z,3.78
2023-09-07T11:56:46.894Z,3.45
2023-09-07T11:59:14.289Z,4.00
2023-09-07T12:01:41.879Z,3.65
2023-09-07T12:04:09.897Z,3.50
2023-09-07T12:06:37.724Z,3.67
2023-09-07T12:09:18.375Z,3.70
2023-09-07T12:11:45.780Z,3.90
2023-09-07T12:14:14.456Z,3.05
2023-09-07T12:16:42.060Z,3.22
2023-09-07T12:19:10.257Z,3.50
2023-09-07T12:21:37.716Z,3.35
2023-09-07T12:24:05.403Z,3.55
2023-09-07T12:26:32.961Z,3.28
2023-09-07T12:29:00.534Z,3.33
2023-09-07T12:31:28.093Z,4.00
2023-09-07T12:33:55.581Z,3.40
2023-09-07T12:36:23.248Z,3.25
2023-09-07T12:38:51.199Z,3.58
2023-09-07T12:41:19.020Z,3.40
2023-09-07T12:43:46.807Z,3.13
2023-09-07T12:46:14.906Z,3.20
2023-09-07T12:48:42.401Z,2.90
2023-09-07T12:51:09.780Z,3.30
2023-09-07T12:53:37.165Z,3.05
2023-09-07T12:56:05.067Z,3.33
2023-09-07T12:58:32.581Z,3.53
2023-09-07T13:01:00.015Z,3.38
2023-09-07T13:03:27.552Z,3.85
2023-09-07T13:05:55.157Z,3.72
2023-09-07T13:08:22.616Z,3.60
2023-09-07T13:10:50.030Z,3.22
2023-09-07T13:13:18.465Z,3.40
2023-09-07T13:15:46.031Z,3.20
2023-09-07T13:18:13.741Z,3.40
2023-09-07T13:20:41.156Z,3.60
2023-09-07T13:23:08.560Z,3.33
2023-09-07T13:25:36.099Z,3.50
2023-09-07T13:28:03.690Z,3.53
2023-09-07T13:30:31.098Z,3.65
2023-09-07T13:32:58.560Z,3.38
2023-09-07T13:35:25.972Z,3.55
2023-09-07T13:37:54.029Z,3.45
2023-09-07T13:40:25.256Z,3.17
2023-09-07T13:42:52.717Z,3.05
2023-09-07T13:45:20.154Z,4.05
2023-09-07T13:47:47.780Z,4.63
2023-09-07T13:50:15.423Z,3.50
2023-09-07T13:52:42.837Z,3.70
2023-09-07T13:55:10.334Z,4.05
2023-09-07T13:57:37.818Z,4.20
2023-09-07T14:00:07.167Z,3.83
2023-09-07T14:02:34.793Z,3.50
2023-09-07T14:05:02.329Z,3.97
2023-09-07T14:07:29.912Z,3.90
2023-09-07T14:09:57.661Z,3.90
2023-09-07T14:12:25.110Z,4.00
2023-09-07T14:14:52.576Z,4.03
2023-09-07T14:17:20.052Z,3.60
2023-09-07T14:19:47.520Z,3.70
2023-09-07T14:22:14.967Z,3.75
2023-09-07T14:24:42.390Z,4.13
2023-09-07T14:27:10.270Z,3.75
2023-09-07T14:29:37.754Z,3.78
2023-09-07T14:32:05.833Z,3.75
2023-09-07T14:34:33.299Z,3.80
2023-09-07T14:37:01.006Z,3.85
2023-09-07T14:39:28.749Z,3.95
2023-09-07T14:41:56.244Z,3.80
2023-09-07T14:44:23.883Z,4.30
2023-09-07T14:46:51.849Z,3.63
2023-09-07T14:49:19.513Z,3.72
2023-09-07T14:51:47.205Z,4.30
2023-09-07T14:54:14.760Z,3.80
2023-09-07T14:56:42.198Z,3.60
2023-09-07T14:59:09.805Z,3.97
2023-09-07T15:01:37.281Z,3.90
2023-09-07T15:04:04.930Z,3.47
2023-09-07T15:06:34.607Z,4.22
2023-09-07T15:09:02.177Z,4.95
2023-09-07T15:11:29.822Z,4.15
2023-09-07T15:13:57.335Z,4.55
2023-09-07T15:16:25.985Z,4.07
2023-09-07T15:18:53.626Z,3.78
2023-09-07T15:21:22.001Z,3.92
2023-09-07T15:23:49.891Z,4.00
2023-09-07T15:26:17.463Z,4.80
2023-09-07T15:28:44.912Z,4.03
2023-09-07T15:31:12.386Z,3.83
2023-09-07T15:33:39.812Z,4.30
2023-09-07T15:36:07.389Z,4.05
2023-09-07T15:38:35.179Z,4.18
2023-09-07T15:41:05.997Z,4.57
2023-09-07T15:43:33.841Z,4.40
2023-09-07T15:46:01.331Z,4.25
2023-09-07T15:48:29.044Z,4.95
2023-09-07T15:50:57.237Z,4.75
2023-09-07T15:53:24.691Z,4.43
2023-09-07T15:55:52.503Z,4.45
2023-09-07T15:58:20.101Z,4.68
2023-09-07T16:00:47.532Z,3.90
2023-09-07T16:03:15.976Z,4.45
2023-09-07T16:05:43.519Z,3.97
2023-09-07T16:08:11.132Z,4.40
2023-09-07T16:10:39.622Z,4.10
2023-09-07T16:13:07.361Z,4.82
2023-09-07T16:15:34.773Z,4.65
2023-09-07T16:18:02.289Z,4.85
2023-09-07T16:20:29.901Z,5.28
2023-09-07T16:22:57.362Z,4.65
2023-09-07T16:25:24.788Z,4.47
2023-09-07T16:27:53.299Z,5.05
2023-09-07T16:30:20.914Z,4.80
2023-09-07T16:32:48.417Z,4.75
2023-09-07T16:35:15.955Z,5.00
2023-09-07T16:37:43.404Z,4.68
2023-09-07T16:40:12.426Z,4.78
2023-09-07T16:42:39.840Z,4.93
2023-09-07T16:45:08.303Z,4.65
2023-09-07T16:47:35.851Z,5.10
2023-09-07T16:50:03.410Z,4.82
2023-09-07T16:52:32.982Z,4.93
2023-09-07T16:55:00.509Z,4.80
2023-09-07T16:57:29.362Z,4.85
2023-09-07T16:59:57.822Z,4.60
2023-09-07T17:02:26.142Z,4.35
2023-09-07T17:04:53.746Z,4.20
2023-09-07T17:07:21.658Z,4.30
2023-09-07T17:09:49.146Z,4.50
2023-09-07T17:12:17.533Z,4.30
2023-09-07T17:14:47.732Z,4.50
2023-09-07T17:17:16.334Z,4.40
2023-09-07T17:19:43.994Z,4.50
2023-09-07T17:22:12.912Z,4.32
2023-09-07T17:24:40.472Z,4.60
2023-09-07T17:27:07.870Z,4.15
2023-09-07T17:29:35.441Z,4.20
2023-09-07T17:32:02.975Z,4.30
2023-09-07T17:34:34.382Z,4.30
2023-09-07T17:37:01.941Z,4.45
2023-09-07T17:39:29.623Z,4.53
2023-09-07T17:41:57.114Z,4.72
2023-09-07T17:44:24.599Z,4.78
2023-09-07T17:46:52.163Z,5.22
2023-09-07T17:49:19.664Z,5.03
2023-09-07T17:51:47.201Z,5.00
2023-09-07T17:54:15.023Z,5.07
2023-09-07T17:56:42.779Z,4.43
2023-09-07T17:59:10.540Z,4.75
2023-09-07T18:01:38.197Z,4.93
2023-09-07T18:04:05.981Z,4.90
2023-09-07T18:06:34.913Z,4.53
2023-09-07T18:09:02.503Z,4.72
2023-09-07T18:11:30.148Z,4.75
2023-09-07T18:14:11.579Z,4.43
2023-09-07T18:16:42.487Z,4.25
2023-09-07T18:19:10.689Z,4.53
2023-09-07T18:21:39.248Z,4.60
2023-09-07T18:24:07.122Z,3.85
2023-09-07T18:26:34.631Z,4.45
2023-09-07T18:29:02.215Z,4.60
2023-09-07T18:31:29.740Z,4.05
2023-09-07T18:33:57.361Z,4.13
2023-09-07T18:36:24.894Z,4.30
2023-09-07T18:38:52.377Z,4.20
2023-09-07T18:41:19.816Z,3.92
2023-09-07T18:43:47.272Z,3.97
2023-09-07T18:46:14.827Z,4.18
2023-09-07T18:48:42.328Z,4.07
2023-09-07T18:51:10.092Z,3.75
2023-09-07T18:53:37.823Z,3.80
2023-09-07T18:56:07.213Z,4.30
2023-09-07T18:58:35.758Z,4.50
2023-09-07T19:01:29.849Z,4.72
2023-09-07T19:04:12.517Z,5.05
2023-09-07T19:06:40.551Z,4.93
2023-09-07T19:09:09.351Z,4.80
2023-09-07T19:11:37.328Z,4.47
2023-09-07T19:14:05.483Z,4.30
2023-09-07T19:16:33.033Z,3.55
2023-09-07T19:19:00.672Z,3.92
2023-09-07T19:21:32.106Z,4.43
2023-09-07T19:24:01.020Z,3.97
2023-09-07T19:26:33.115Z,4.40
2023-09-07T19:29:02.452Z,4.35
2023-09-07T19:31:30.069Z,3.85
2023-09-07T19:33:58.667Z,4.05
2023-09-07T19:36:27.717Z,4.38
2023-09-07T19:38:58.746Z,4.00
2023-09-07T19:41:35.631Z,4.10
2023-09-07T19:44:04.018Z,4.00
2023-09-07T19:49:05.115Z,4.00
2023-09-07T19:51:33.924Z,4.10
2023-09-07T19:54:01.581Z,4.20
2023-09-07T19:56:29.490Z,4.20
2023-09-07T19:58:57.150Z,4.35
2023-09-07T20:01:25.084Z,3.80
2023-09-07T20:03:55.172Z,4.03
2023-09-07T20:06:25.725Z,4.63
2023-09-07T20:08:53.537Z,4.20
2023-09-07T20:11:21.058Z,4.20
2023-09-07T20:13:48.736Z,4.43
2023-09-07T20:16:17.358Z,4.15
2023-09-07T20:18:47.505Z,4.07
2023-09-07T20:21:15.109Z,4.32
2023-09-07T20:23:43.069Z,4.50
2023-09-07T20:26:10.652Z,4.00
2023-09-07T20:28:38.526Z,4.60
2023-09-07T20:31:07.234Z,4.20
2023-09-07T20:33:34.862Z,3.88
2023-09-07T20:36:03.063Z,3.90
2023-09-07T20:38:31.658Z,4.22
2023-09-07T20:41:00.704Z,4.63
2023-09-07T20:43:28.799Z,4.43
2023-09-07T20:45:56.571Z,5.00
2023-09-07T20:48:24.561Z,4.18
2023-09-07T20:50:52.284Z,4.28
2023-09-07T20:53:21.543Z,4.30
2023-09-07T20:55:49.380Z,4.53
2023-09-07T20:58:17.014Z,4.60
2023-09-07T21:00:44.569Z,4.22
2023-09-07T21:03:12.278Z,4.90
2023-09-07T21:05:40.163Z,4.40
2023-09-07T21:08:07.686Z,5.00
2023-09-07T21:10:35.415Z,5.03
2023-09-07T21:13:03.011Z,4.70
2023-09-07T21:15:30.512Z,4.38
2023-09-07T21:17:59.252Z,5.22
2023-09-07T21:20:27.148Z,4.68
2023-09-07T21:22:54.488Z,4.53
2023-09-07T21:25:22.028Z,4.40
2023-09-07T21:27:49.555Z,4.75
2023-09-07T21:30:17.111Z,4.32
2023-09-07T21:32:44.564Z,4.45
2023-09-07T21:35:12.171Z,4.75
2023-09-07T21:37:39.684Z,4.85
2023-09-07T21:40:07.815Z,4.78
2023-09-07T21:42:35.268Z,4.07
2023-09-07T21:45:02.767Z,5.05
2023-09-07T21:47:31.787Z,4.88
2023-09-07T21:50:03.959Z,4.50
2023-09-07T21:52:31.579Z,4.45
2023-09-07T21:54:59.015Z,4.18
2023-09-07T21:57:26.571Z,4.57
2023-09-07T21:59:54.547Z,4.40
2023-09-07T22:02:23.786Z,4.40
2023-09-07T22:04:52.635Z,4.70
2023-09-07T22:07:20.534Z,4.75
2023-09-07T22:09:49.430Z,4.38
2023-09-07T22:12:17.059Z,4.80
2023-09-07T22:14:45.043Z,4.28
2023-09-07T22:17:15.595Z,4.70
2023-09-07T22:19:43.119Z,4.63
2023-09-07T22:22:12.700Z,4.85
2023-09-07T22:24:40.199Z,4.63
2023-09-07T22:27:07.824Z,5.00
2023-09-07T22:29:36.287Z,5.00
2023-09-07T22:32:04.142Z,5.05
2023-09-07T22:34:32.730Z,4.75
2023-09-07T22:37:03.415Z,4.90
2023-09-07T22:39:30.898Z,4.97
2023-09-07T22:41:58.549Z,4.90
2023-09-07T22:44:26.160Z,5.03
2023-09-07T22:46:55.020Z,4.60
2023-09-07T22:49:22.618Z,5.20
2023-09-07T22:51:50.108Z,4.82
2023-09-07T22:54:18.026Z,4.32
2023-09-07T22:56:45.534Z,4.72
2023-09-07T22:59:13.235Z,4.60
2023-09-07T23:01:40.736Z,5.18
2023-09-07T23:04:08.869Z,4.90
2023-09-07T23:06:36.506Z,4.88
2023-09-07T23:09:08.012Z,5.05
2023-09-07T23:11:35.678Z,4.88
2023-09-07T23:14:03.330Z,5.22
2023-09-07T23:16:30.929Z,5.43
2023-09-07T23:18:58.617Z,5.07
2023-09-07T23:21:26.413Z,4.93
2023-09-07T23:23:53.961Z,5.40
2023-09-07T23:26:22.448Z,5.10
2023-09-07T23:28:49.959Z,5.25
2023-09-07T23:31:19.053Z,4.75
2023-09-07T23:33:46.690Z,5.20
2023-09-07T23:36:14.202Z,5.03
2023-09-07T23:38:42.773Z,5.35
2023-09-07T23:41:10.825Z,4.90
2023-09-07T23:43:38.337Z,5.00
2023-09-07T23:46:05.869Z,5.40
2023-09-07T23:48:33.610Z,5.65
2023-09-07T23:51:01.363Z,5.03
2023-09-07T23:53:28.990Z,5.25
2023-09-07T23:55:56.741Z,5.10
2023-09-07T23:58:24.282Z,5.18
